Time;durP1;ratioP1;P1;durP2;ratioP2;P2;SDS_P1;SDS_P2;PMS_P1;PMS_P2;Temp;Humidity;BMP_temperature;BMP_pressure;BME280_temperature;BME280_humidity;BME280_pressure;Samples;Min_cycle;Max_cycle;Signal;HPM_P1;HPM_P2
2023/07/02 00:02:08;;;;;;;3.27;3.07;;;17.60;99.90;;;;;;4864037;29;20256;-75
2023/07/02 00:04:33;;;;;;;3.50;3.20;;;17.70;99.90;;;;;;4857753;29;20710;-75
2023/07/02 00:06:59;;;;;;;3.30;3.00;;;17.70;99.90;;;;;;4857770;29;20200;-75
2023/07/02 00:09:25;;;;;;;3.10;2.90;;;17.70;99.90;;;;;;4862308;29;20652;-75
2023/07/02 00:11:50;;;;;;;5.33;3.23;;;17.60;99.90;;;;;;4863944;29;20208;-74
2023/07/02 00:14:16;;;;;;;3.47;3.23;;;17.50;99.90;;;;;;4854037;29;20236;-74
2023/07/02 00:16:45;;;;;;;3.77;3.47;;;17.60;99.90;;;;;;4856982;29;20192;-74
2023/07/02 00:19:13;;;;;;;3.72;3.42;;;17.60;99.90;;;;;;4852773;29;20271;-75
2023/07/02 00:21:40;;;;;;;4.43;3.60;;;17.80;99.90;;;;;;4853465;29;20275;-76
2023/07/02 00:24:07;;;;;;;3.50;3.20;;;17.80;99.90;;;;;;4856094;29;20195;-74
2023/07/02 00:26:32;;;;;;;3.55;3.25;;;17.70;99.90;;;;;;4856433;29;20290;-74
2023/07/02 00:28:58;;;;;;;3.60;3.10;;;17.60;99.90;;;;;;4860481;29;20298;-76
2023/07/02 00:31:24;;;;;;;3.53;3.27;;;17.50;99.90;;;;;;4856309;29;20577;-74
2023/07/02 00:33:50;;;;;;;3.92;3.40;;;17.50;99.90;;;;;;4860522;29;20502;-74
2023/07/02 00:36:16;;;;;;;3.78;3.50;;;17.60;99.90;;;;;;4858291;29;20219;-77
2023/07/02 00:38:47;;;;;;;4.13;3.60;;;17.70;99.90;;;;;;4856191;29;20219;-74
2023/07/02 00:41:13;;;;;;;4.55;3.30;;;17.60;99.90;;;;;;4853034;29;20275;-76
2023/07/02 00:43:44;;;;;;;4.03;3.73;;;17.60;99.90;;;;;;4857954;29;20662;-74
2023/07/02 00:46:19;;;;;;;3.97;3.67;;;17.70;99.90;;;;;;4853723;29;20489;-74
2023/07/02 00:48:53;;;;;;;3.80;3.50;;;17.60;99.90;;;;;;4857687;29;20299;-76
2023/07/02 00:51:24;;;;;;;3.78;3.42;;;17.50;99.90;;;;;;4856947;29;20275;-73
2023/07/02 00:53:53;;;;;;;3.75;3.42;;;17.60;99.90;;;;;;4856260;29;20188;-74
2023/07/02 00:56:19;;;;;;;4.30;3.30;;;17.60;99.90;;;;;;4859553;29;20200;-74
2023/07/02 00:58:50;;;;;;;7.13;3.80;;;17.70;99.90;;;;;;4861961;29;20204;-74
2023/07/02 01:01:27;;;;;;;4.07;3.78;;;17.60;99.90;;;;;;4857051;29;20253;-74
2023/07/02 01:04:03;;;;;;;3.80;3.50;;;17.90;99.90;;;;;;4868221;29;20344;-74
2023/07/02 01:06:30;;;;;;;4.05;3.35;;;17.60;99.90;;;;;;4853894;29;20217;-74
2023/07/02 01:08:58;;;;;;;3.50;3.20;;;17.60;99.90;;;;;;4858411;29;20246;-75
2023/07/02 01:11:38;;;;;;;2.90;2.70;;;17.30;99.90;;;;;;4846247;29;20197;-74
2023/07/02 01:14:08;;;;;;;3.30;3.10;;;17.40;99.90;;;;;;4854060;29;20701;-74
2023/07/02 01:16:34;;;;;;;4.80;3.38;;;17.50;99.90;;;;;;4858806;29;20191;-74
2023/07/02 01:19:04;;;;;;;3.67;3.38;;;17.30;99.90;;;;;;4854449;29;20340;-75
2023/07/02 01:21:31;;;;;;;3.85;3.22;;;17.50;99.90;;;;;;4860376;29;20190;-76
2023/07/02 01:24:00;;;;;;;3.65;3.33;;;17.50;99.90;;;;;;4858791;29;20271;-74
2023/07/02 01:26:33;;;;;;;5.07;3.70;;;17.60;99.90;;;;;;4856015;29;20283;-75
2023/07/02 01:28:59;;;;;;;4.35;3.95;;;17.60;99.90;;;;;;4857603;29;20213;-74
2023/07/02 01:31:25;;;;;;;4.20;3.80;;;17.40;99.90;;;;;;4854961;29;20187;-74
2023/07/02 01:33:52;;;;;;;4.20;3.83;;;17.40;99.90;;;;;;4866974;29;20240;-74
2023/07/02 01:36:17;;;;;;;3.78;3.47;;;17.30;99.90;;;;;;4855180;29;20655;-74
2023/07/02 01:38:43;;;;;;;5.80;3.77;;;17.30;99.90;;;;;;4857947;29;20389;-74
2023/07/02 01:41:09;;;;;;;3.13;2.93;;;17.20;99.90;;;;;;4858394;29;20189;-75
2023/07/02 01:43:34;;;;;;;3.87;3.57;;;17.40;99.90;;;;;;4858424;29;20267;-74
2023/07/02 01:46:01;;;;;;;3.80;3.40;;;17.30;99.90;;;;;;4863510;29;20229;-74
2023/07/02 01:48:27;;;;;;;3.97;3.67;;;17.10;99.90;;;;;;4860150;29;20215;-75
2023/07/02 01:50:53;;;;;;;4.33;3.30;;;17.30;99.90;;;;;;4863503;29;20219;-74
2023/07/02 01:53:18;;;;;;;4.13;3.30;;;17.30;99.90;;;;;;4861316;29;20355;-74
2023/07/02 01:55:44;;;;;;;4.40;3.67;;;17.60;99.90;;;;;;4860919;29;20966;-75
2023/07/02 01:58:09;;;;;;;3.57;3.33;;;17.30;99.90;;;;;;4858931;29;20654;-76
2023/07/02 02:00:36;;;;;;;3.63;3.33;;;17.20;99.90;;;;;;4859128;29;20199;-74
2023/07/02 02:03:01;;;;;;;3.20;3.00;;;17.10;99.90;;;;;;4857931;29;20211;-74
2023/07/02 02:05:27;;;;;;;4.73;3.23;;;17.30;99.90;;;;;;4858011;29;20192;-74
2023/07/02 02:07:53;;;;;;;4.30;3.03;;;17.30;99.90;;;;;;4856935;29;20323;-74
2023/07/02 02:10:18;;;;;;;5.50;3.27;;;17.30;99.90;;;;;;4862109;29;20601;-74
2023/07/02 02:12:44;;;;;;;3.90;3.60;;;17.30;99.90;;;;;;4858514;29;20261;-74
2023/07/02 02:15:10;;;;;;;4.23;3.50;;;17.20;99.90;;;;;;4852092;29;20287;-74
2023/07/02 02:17:36;;;;;;;4.05;3.55;;;17.40;99.90;;;;;;4860137;29;20204;-74
2023/07/02 02:20:05;;;;;;;4.27;3.60;;;17.40;99.90;;;;;;4860276;29;20268;-74
2023/07/02 02:22:31;;;;;;;4.15;3.50;;;17.40;99.90;;;;;;4857914;29;20344;-74
2023/07/02 02:24:56;;;;;;;4.70;4.30;;;17.30;99.90;;;;;;4863676;29;20275;-74
2023/07/02 02:27:22;;;;;;;3.80;3.43;;;17.10;99.90;;;;;;4853677;29;20197;-75
2023/07/02 02:29:48;;;;;;;5.00;3.80;;;17.20;99.90;;;;;;4864778;29;20252;-76
2023/07/02 02:32:14;;;;;;;3.93;3.60;;;17.20;99.90;;;;;;4862259;29;20718;-74
2023/07/02 02:34:40;;;;;;;3.60;3.30;;;17.10;99.90;;;;;;4858173;29;20723;-76
2023/07/02 02:37:05;;;;;;;3.77;3.47;;;17.30;99.90;;;;;;4856327;29;20230;-74
2023/07/02 02:39:31;;;;;;;3.77;3.20;;;17.10;99.90;;;;;;4862825;29;20223;-74
2023/07/02 02:41:56;;;;;;;3.53;3.23;;;17.20;99.90;;;;;;4859223;29;20704;-77
2023/07/02 02:44:22;;;;;;;4.03;3.63;;;16.90;99.90;;;;;;4865109;29;20233;-75
2023/07/02 02:46:48;;;;;;;4.13;3.83;;;17.10;99.90;;;;;;4856570;29;20204;-75
2023/07/02 02:49:13;;;;;;;4.10;3.80;;;17.10;99.90;;;;;;4857584;29;20240;-76
2023/07/02 02:51:40;;;;;;;3.57;3.27;;;17.10;99.90;;;;;;4855185;29;20192;-74
2023/07/02 02:54:06;;;;;;;3.70;3.42;;;17.00;99.90;;;;;;4855401;29;20663;-74
2023/07/02 02:56:31;;;;;;;3.90;3.60;;;17.30;99.90;;;;;;4853631;29;20200;-74
2023/07/02 02:58:57;;;;;;;3.53;3.23;;;17.30;99.90;;;;;;4860640;29;20199;-74
2023/07/02 03:01:22;;;;;;;3.47;3.27;;;17.10;99.90;;;;;;4864144;29;20294;-74
2023/07/02 03:03:48;;;;;;;6.20;4.30;;;17.30;99.90;;;;;;4858028;29;20189;-74
2023/07/02 03:06:14;;;;;;;3.70;3.40;;;17.20;99.90;;;;;;4861807;29;20196;-74
2023/07/02 03:08:40;;;;;;;3.80;3.50;;;17.20;99.90;;;;;;4874454;29;20220;-74
2023/07/02 03:11:06;;;;;;;4.37;3.20;;;17.40;99.90;;;;;;4862123;29;20188;-73
2023/07/02 03:13:32;;;;;;;4.50;3.33;;;17.40;99.90;;;;;;4857435;29;20473;-74
2023/07/02 03:15:57;;;;;;;3.83;3.27;;;17.50;99.90;;;;;;4856626;29;20987;-74
2023/07/02 03:18:23;;;;;;;2.80;2.50;;;17.40;99.90;;;;;;4858945;29;20199;-77
2023/07/02 03:20:48;;;;;;;3.10;2.90;;;17.30;99.90;;;;;;4859204;29;20188;-73
2023/07/02 03:23:14;;;;;;;4.27;2.93;;;17.10;99.90;;;;;;4863462;29;20575;-73
2023/07/02 03:25:39;;;;;;;3.50;3.20;;;17.10;99.90;;;;;;4859264;29;20216;-76
2023/07/02 03:28:05;;;;;;;3.50;3.20;;;17.40;99.90;;;;;;4855230;29;20214;-74
2023/07/02 03:30:31;;;;;;;3.57;3.27;;;17.30;99.90;;;;;;4852035;29;20557;-73
2023/07/02 03:32:57;;;;;;;3.60;3.30;;;17.20;99.90;;;;;;4857504;29;20206;-74
2023/07/02 03:35:23;;;;;;;5.93;3.50;;;17.40;99.90;;;;;;4855383;29;20203;-74
2023/07/02 03:37:48;;;;;;;4.00;3.70;;;17.10;99.90;;;;;;4859687;29;20283;-76
2023/07/02 03:40:14;;;;;;;4.77;3.63;;;17.20;99.90;;;;;;4856442;29;20244;-74
2023/07/02 03:42:40;;;;;;;4.20;3.70;;;17.20;99.90;;;;;;4857656;29;20216;-77
2023/07/02 03:45:06;;;;;;;5.57;3.70;;;17.10;99.90;;;;;;4860711;29;20682;-74
2023/07/02 03:47:31;;;;;;;4.20;3.80;;;17.20;99.90;;;;;;4857286;29;20206;-75
2023/07/02 03:49:57;;;;;;;3.67;3.37;;;17.00;99.90;;;;;;4860749;29;20184;-73
2023/07/02 03:52:22;;;;;;;4.10;3.80;;;17.00;99.90;;;;;;4858081;29;20240;-74
2023/07/02 03:54:48;;;;;;;4.97;3.67;;;16.90;99.90;;;;;;4857900;29;20658;-74
2023/07/02 03:57:13;;;;;;;4.37;3.97;;;16.90;99.90;;;;;;4855400;29;20189;-76
2023/07/02 03:59:40;;;;;;;4.63;4.17;;;16.70;99.90;;;;;;4854893;29;20195;-74
2023/07/02 04:02:06;;;;;;;4.20;3.70;;;16.70;99.90;;;;;;4860326;29;20208;-74
2023/07/02 04:04:31;;;;;;;5.47;3.60;;;16.60;99.90;;;;;;4860545;29;20199;-74
2023/07/02 04:06:57;;;;;;;6.30;4.67;;;16.80;99.90;;;;;;4857542;29;20645;-74
2023/07/02 04:09:22;;;;;;;4.97;4.50;;;16.70;99.90;;;;;;4865015;29;20219;-75
2023/07/02 04:11:48;;;;;;;4.43;4.03;;;16.40;99.90;;;;;;4865434;29;20298;-74
2023/07/02 04:14:14;;;;;;;6.70;4.60;;;16.40;99.90;;;;;;4865826;29;20256;-74
2023/07/02 04:16:39;;;;;;;4.73;4.33;;;16.40;99.90;;;;;;4863222;29;20308;-73
2023/07/02 04:19:05;;;;;;;4.60;4.13;;;16.80;99.90;;;;;;4860428;29;20216;-75
2023/07/02 04:21:30;;;;;;;5.33;4.53;;;16.80;99.90;;;;;;4860029;29;20864;-73
2023/07/02 04:23:56;;;;;;;5.30;3.57;;;16.70;99.90;;;;;;4864990;29;20214;-74
2023/07/02 04:26:22;;;;;;;4.00;3.60;;;16.40;99.90;;;;;;4865160;29;20968;-74
2023/07/02 04:28:47;;;;;;;5.50;4.30;;;16.40;99.90;;;;;;4858174;29;20212;-74
2023/07/02 04:31:13;;;;;;;5.03;4.00;;;16.50;99.90;;;;;;4861477;29;20559;-74
2023/07/02 04:33:40;;;;;;;3.93;3.30;;;16.60;99.90;;;;;;4855544;29;20239;-74
2023/07/02 04:36:05;;;;;;;4.78;4.10;;;16.60;99.90;;;;;;4855776;29;20205;-76
2023/07/02 04:38:31;;;;;;;5.23;4.10;;;17.00;99.90;;;;;;4857680;29;20191;-73
2023/07/02 04:41:05;;;;;;;6.77;3.80;;;16.80;99.90;;;;;;4863094;29;20537;-75
2023/07/02 04:43:32;;;;;;;7.68;4.03;;;16.70;99.90;;;;;;4851470;29;20208;-72
2023/07/02 04:45:58;;;;;;;6.15;4.05;;;16.70;99.90;;;;;;4857494;29;20210;-71
2023/07/02 04:48:23;;;;;;;3.70;3.40;;;16.60;99.90;;;;;;4857961;29;20224;-74
2023/07/02 04:50:50;;;;;;;5.50;4.07;;;16.70;99.90;;;;;;4858408;29;20188;-74
2023/07/02 04:53:15;;;;;;;5.20;3.80;;;16.60;99.90;;;;;;4860938;29;20878;-74
2023/07/02 04:55:41;;;;;;;4.67;4.13;;;16.60;99.90;;;;;;4859485;29;20199;-73
2023/07/02 04:58:07;;;;;;;9.03;4.10;;;16.30;99.90;;;;;;4858693;29;20287;-71
2023/07/02 05:00:32;;;;;;;5.93;3.60;;;16.60;99.90;;;;;;4866582;29;20467;-72
2023/07/02 05:02:58;;;;;;;4.80;4.23;;;16.60;99.90;;;;;;4855704;29;20204;-74
2023/07/02 05:05:24;;;;;;;4.60;4.20;;;16.80;99.90;;;;;;4855820;29;20654;-74
2023/07/02 05:07:49;;;;;;;4.27;3.43;;;16.70;99.90;;;;;;4860405;29;20223;-74
2023/07/02 05:10:15;;;;;;;5.10;3.47;;;16.80;99.90;;;;;;4858501;29;20188;-74
2023/07/02 05:12:40;;;;;;;4.17;3.77;;;17.00;99.90;;;;;;4860348;29;20239;-74
2023/07/02 05:15:06;;;;;;;4.33;3.93;;;16.90;99.90;;;;;;4852671;29;20185;-74
2023/07/02 05:17:34;;;;;;;5.00;3.55;;;17.10;99.90;;;;;;4859117;29;20239;-74
2023/07/02 05:20:01;;;;;;;4.93;3.90;;;17.30;99.90;;;;;;4867321;29;20270;-74
2023/07/02 05:22:26;;;;;;;4.95;3.55;;;17.30;99.90;;;;;;4866798;29;20214;-74
2023/07/02 05:24:52;;;;;;;3.90;3.53;;;17.40;99.90;;;;;;4862691;29;20196;-75
2023/07/02 05:27:17;;;;;;;4.47;3.70;;;17.40;99.90;;;;;;4863324;29;20655;-76
2023/07/02 05:29:43;;;;;;;5.00;3.67;;;17.40;99.90;;;;;;4859400;29;20922;-74
2023/07/02 05:32:09;;;;;;;4.90;4.47;;;17.90;99.90;;;;;;4867361;29;20259;-73
2023/07/02 05:34:35;;;;;;;5.07;3.60;;;17.60;99.90;;;;;;4861326;29;20196;-75
2023/07/02 05:37:00;;;;;;;5.37;3.27;;;17.50;99.90;;;;;;4864210;29;20630;-77
2023/07/02 05:39:26;;;;;;;4.10;3.53;;;17.90;99.90;;;;;;4862687;29;20198;-73
2023/07/02 05:41:52;;;;;;;4.97;3.90;;;18.00;99.90;;;;;;4871730;29;20220;-75
2023/07/02 05:44:17;;;;;;;5.00;3.67;;;18.00;99.90;;;;;;4865646;29;20445;-74
2023/07/02 05:46:43;;;;;;;5.90;4.13;;;17.80;99.90;;;;;;4868727;29;20257;-75
2023/07/02 05:49:09;;;;;;;6.00;3.80;;;17.90;99.90;;;;;;4870081;29;20212;-74
2023/07/02 05:51:34;;;;;;;4.80;4.30;;;17.80;99.90;;;;;;4869298;29;20226;-74
2023/07/02 05:54:00;;;;;;;6.43;3.57;;;17.80;99.90;;;;;;4868859;29;20716;-74
2023/07/02 05:56:26;;;;;;;5.90;5.00;;;18.10;99.90;;;;;;4865620;29;20440;-76
2023/07/02 05:58:51;;;;;;;5.10;4.50;;;17.80;99.90;;;;;;4872811;29;20207;-75
2023/07/02 06:01:17;;;;;;;7.17;4.60;;;18.20;99.90;;;;;;4867019;29;20214;-74
2023/07/02 06:03:45;;;;;;;4.90;4.23;;;18.10;99.90;;;;;;4868982;29;20238;-74
2023/07/02 06:06:11;;;;;;;9.38;5.10;;;18.20;99.90;;;;;;4863294;29;20566;-69
2023/07/02 06:08:37;;;;;;;5.65;4.65;;;18.20;99.90;;;;;;4857406;29;20208;-72
2023/07/02 06:11:02;;;;;;;5.80;4.10;;;18.40;99.90;;;;;;4856202;29;20251;-71
2023/07/02 06:13:28;;;;;;;5.37;4.17;;;18.60;99.90;;;;;;4859788;29;20216;-70
2023/07/02 06:15:53;;;;;;;6.50;5.10;;;19.00;99.90;;;;;;4854175;29;20271;-67
2023/07/02 06:18:19;;;;;;;7.17;4.80;;;18.80;99.90;;;;;;4856472;29;20202;-70
2023/07/02 06:20:46;;;;;;;7.70;5.13;;;19.00;99.90;;;;;;4853735;29;21022;-67
2023/07/02 06:23:11;;;;;;;7.68;5.75;;;19.10;99.90;;;;;;4857993;29;20298;-70
2023/07/02 06:25:37;;;;;;;8.43;5.63;;;19.20;99.90;;;;;;4855542;29;20651;-68
2023/07/02 06:28:03;;;;;;;9.43;6.60;;;19.20;99.90;;;;;;4855776;29;20204;-75
2023/07/02 06:30:28;;;;;;;8.07;6.73;;;19.30;99.90;;;;;;4860289;29;20196;-76
2023/07/02 06:32:54;;;;;;;8.97;6.77;;;19.40;99.90;;;;;;4860412;29;20512;-72
2023/07/02 06:35:20;;;;;;;9.30;6.95;;;19.50;99.90;;;;;;4863495;29;20196;-72
2023/07/02 06:37:46;;;;;;;9.60;7.40;;;19.70;99.90;;;;;;4856102;29;20188;-74
2023/07/02 06:40:12;;;;;;;11.70;7.50;;;19.80;99.90;;;;;;4855706;29;20239;-73
2023/07/02 06:42:37;;;;;;;9.90;7.77;;;20.00;99.90;;;;;;4860561;29;20572;-69
2023/07/02 06:45:04;;;;;;;12.10;7.30;;;20.50;99.90;;;;;;4856547;29;20184;-71
2023/07/02 06:47:30;;;;;;;9.15;6.90;;;20.30;99.90;;;;;;4849818;29;20203;-71
2023/07/02 06:49:55;;;;;;;7.70;7.00;;;20.40;99.70;;;;;;4850326;29;20193;-64
2023/07/02 06:52:21;;;;;;;10.40;7.17;;;20.50;99.50;;;;;;4853033;29;20208;-63
2023/07/02 06:54:47;;;;;;;8.33;7.40;;;20.50;99.40;;;;;;4854793;29;20256;-63
2023/07/02 06:57:15;;;;;;;10.27;8.50;;;20.70;99.60;;;;;;4847528;29;20196;-63
2023/07/02 06:59:41;;;;;;;11.60;7.47;;;20.60;99.20;;;;;;4854169;29;20204;-64
2023/07/02 07:02:07;;;;;;;9.43;7.67;;;20.80;99.10;;;;;;4855277;29;20212;-64
2023/07/02 07:04:34;;;;;;;13.20;7.37;;;20.90;98.50;;;;;;4853532;29;20598;-64
2023/07/02 07:07:01;;;;;;;11.57;7.97;;;20.90;98.30;;;;;;4850671;29;20455;-63
2023/07/02 07:09:27;;;;;;;12.35;7.43;;;20.80;98.20;;;;;;4855388;29;20330;-64
2023/07/02 07:11:52;;;;;;;9.87;8.23;;;20.90;98.60;;;;;;4852589;29;20582;-64
2023/07/02 07:14:18;;;;;;;8.60;7.70;;;21.00;98.20;;;;;;4856572;29;20270;-64
2023/07/02 07:16:43;;;;;;;13.10;8.00;;;21.30;97.40;;;;;;4854548;29;20722;-64
2023/07/02 07:19:09;;;;;;;12.67;8.17;;;21.60;96.40;;;;;;4855179;29;20188;-64
2023/07/02 07:21:35;;;;;;;12.77;8.47;;;21.40;95.50;;;;;;4853594;29;20208;-64
2023/07/02 07:24:00;;;;;;;12.43;8.40;;;21.40;95.80;;;;;;4854481;29;20216;-64
2023/07/02 07:26:26;;;;;;;13.73;9.17;;;21.40;96.40;;;;;;4852829;29;20193;-62
2023/07/02 07:28:54;;;;;;;13.53;8.73;;;22.50;95.20;;;;;;4852952;29;20223;-62
2023/07/02 07:31:20;;;;;;;13.30;9.93;;;24.00;92.00;;;;;;4855185;29;20248;-65
2023/07/02 07:33:45;;;;;;;11.47;9.90;;;25.20;87.10;;;;;;4854200;29;20470;-64
2023/07/02 07:36:11;;;;;;;11.67;10.27;;;25.60;83.00;;;;;;4853048;29;20183;-64
2023/07/02 07:38:36;;;;;;;15.93;10.53;;;26.00;79.10;;;;;;4855278;29;20188;-64
2023/07/02 07:41:02;;;;;;;13.40;10.30;;;26.70;75.90;;;;;;4849185;29;20212;-71
2023/07/02 07:43:27;;;;;;;15.27;11.43;;;26.70;73.60;;;;;;4854552;29;22118;-72
2023/07/02 07:45:54;;;;;;;12.30;9.83;;;26.50;73.40;;;;;;4853215;29;20231;-77
2023/07/02 07:48:21;;;;;;;14.40;10.83;;;27.50;72.40;;;;;;4851699;29;20694;-67
2023/07/02 07:50:46;;;;;;;14.90;11.80;;;27.70;70.40;;;;;;4851244;29;20982;-66
2023/07/02 07:53:12;;;;;;;11.67;10.47;;;27.40;68.00;;;;;;4855110;29;20473;-65
2023/07/02 07:55:38;;;;;;;11.90;10.70;;;27.10;69.60;;;;;;4853266;29;20195;-66
2023/07/02 07:58:03;;;;;;;12.43;11.13;;;26.60;70.70;;;;;;4853529;29;20198;-65
2023/07/02 08:00:29;;;;;;;11.60;10.20;;;26.40;72.40;;;;;;4853395;29;20283;-67
2023/07/02 08:02:55;;;;;;;13.53;11.10;;;26.30;72.70;;;;;;4856682;29;20591;-64
2023/07/02 08:05:22;;;;;;;12.50;10.73;;;26.00;73.10;;;;;;4850597;29;20188;-64
2023/07/02 08:07:47;;;;;;;13.70;10.90;;;26.60;71.80;;;;;;4848099;29;20483;-63
2023/07/02 08:10:13;;;;;;;14.07;10.10;;;26.90;69.20;;;;;;4851059;29;20823;-65
2023/07/02 08:12:39;;;;;;;15.57;12.37;;;26.70;68.90;;;;;;4848737;29;20213;-66
2023/07/02 08:15:05;;;;;;;12.97;11.00;;;26.30;69.80;;;;;;4853936;29;20216;-64
2023/07/02 08:17:30;;;;;;;14.80;10.73;;;27.00;69.30;;;;;;4854306;29;20670;-62
2023/07/02 08:19:57;;;;;;;12.83;10.53;;;27.80;67.40;;;;;;4854515;29;20509;-64
2023/07/02 08:22:23;;;;;;;12.57;11.20;;;28.90;63.00;;;;;;4849650;29;20214;-63
2023/07/02 08:24:49;;;;;;;11.73;10.50;;;29.50;59.80;;;;;;4851425;29;20469;-64
2023/07/02 08:27:18;;;;;;;13.10;10.97;;;30.20;58.60;;;;;;4851735;29;20188;-64
2023/07/02 08:29:45;;;;;;;13.47;12.07;;;31.50;56.60;;;;;;4850194;29;20525;-64
2023/07/02 08:32:10;;;;;;;14.87;12.20;;;32.00;54.10;;;;;;4852288;29;20476;-63
2023/07/02 08:34:36;;;;;;;13.43;12.03;;;30.20;54.70;;;;;;4846833;29;20457;-63
2023/07/02 08:37:02;;;;;;;13.73;12.23;;;29.70;56.90;;;;;;4853752;29;20227;-65
2023/07/02 08:39:27;;;;;;;12.73;11.40;;;30.10;55.60;;;;;;4852157;29;20203;-62
2023/07/02 08:41:53;;;;;;;12.53;11.20;;;30.20;55.70;;;;;;4850374;29;20311;-66
2023/07/02 08:44:21;;;;;;;13.00;11.50;;;30.70;54.70;;;;;;4851840;29;20201;-67
2023/07/02 08:46:50;;;;;;;13.70;11.30;;;32.40;52.80;;;;;;4850120;29;20217;-65
2023/07/02 08:49:16;;;;;;;14.43;10.80;;;31.60;51.70;;;;;;4847818;29;20472;-66
2023/07/02 08:51:44;;;;;;;13.00;11.80;;;31.20;50.50;;;;;;4854062;29;20524;-66
2023/07/02 08:54:10;;;;;;;14.40;12.10;;;31.10;50.90;;;;;;4854451;29;20448;-63
2023/07/02 08:56:36;;;;;;;15.87;12.23;;;30.30;53.30;;;;;;4854037;29;20444;-65
2023/07/02 08:59:01;;;;;;;11.63;10.43;;;30.70;52.50;;;;;;4854934;29;20195;-63
2023/07/02 09:01:27;;;;;;;16.03;9.83;;;30.20;52.50;;;;;;4853770;29;20279;-65
2023/07/02 09:04:00;;;;;;;11.83;10.13;;;31.00;50.10;;;;;;4857525;29;20194;-65
2023/07/02 09:06:25;;;;;;;11.80;10.30;;;32.70;48.10;;;;;;4853717;29;20535;-63
2023/07/02 09:08:51;;;;;;;12.27;10.00;;;33.70;46.50;;;;;;4857220;29;20560;-65
2023/07/02 09:11:17;;;;;;;12.70;10.20;;;34.60;45.20;;;;;;4854326;29;20812;-65
2023/07/02 09:13:52;;;;;;;11.13;10.03;;;33.40;45.00;;;;;;4856467;29;20614;-67
2023/07/02 09:16:32;;;;;;;11.77;10.67;;;33.00;45.00;;;;;;4853447;29;20463;-67
2023/07/02 09:19:08;;;;;;;10.50;9.40;;;32.00;46.00;;;;;;4856038;29;20457;-66
2023/07/02 09:21:45;;;;;;;11.87;10.20;;;30.50;47.10;;;;;;4855434;29;20475;-67
2023/07/02 09:24:25;;;;;;;11.27;10.10;;;30.00;49.10;;;;;;4855824;29;20909;-63
2023/07/02 09:26:53;;;;;;;10.93;9.83;;;30.70;48.30;;;;;;4850992;29;20550;-73
2023/07/02 09:29:28;;;;;;;10.97;9.87;;;30.00;48.70;;;;;;4854419;29;20471;-68
2023/07/02 09:31:55;;;;;;;10.77;9.43;;;30.10;49.10;;;;;;4855835;29;21003;-67
2023/07/02 09:34:30;;;;;;;11.27;10.20;;;29.30;49.90;;;;;;4854447;29;20527;-67
2023/07/02 09:36:59;;;;;;;12.00;9.87;;;30.00;50.40;;;;;;4860657;29;20499;-69
2023/07/02 09:39:29;;;;;;;11.40;10.20;;;30.10;49.20;;;;;;4859486;29;20519;-68
2023/07/02 09:41:57;;;;;;;10.37;9.27;;;29.80;50.40;;;;;;4853627;29;20484;-72
2023/07/02 09:44:29;;;;;;;11.17;10.00;;;30.90;49.40;;;;;;4854065;29;20452;-76
2023/07/02 09:47:06;;;;;;;11.73;10.07;;;30.40;48.10;;;;;;4856305;29;21239;-67
2023/07/02 09:49:36;;;;;;;10.60;9.60;;;31.30;46.90;;;;;;4852977;29;20563;-68
2023/07/02 09:52:10;;;;;;;12.17;9.90;;;31.90;46.80;;;;;;4854920;29;20561;-70
2023/07/02 09:54:36;;;;;;;10.47;9.30;;;31.50;47.40;;;;;;4855071;29;20458;-71
2023/07/02 09:57:02;;;;;;;10.70;9.50;;;31.40;46.00;;;;;;4853108;29;20454;-72
2023/07/02 09:59:29;;;;;;;10.40;9.40;;;30.70;47.70;;;;;;4857446;29;20483;-73
2023/07/02 10:01:55;;;;;;;12.03;10.77;;;31.10;47.60;;;;;;4854958;29;20887;-71
2023/07/02 10:04:23;;;;;;;10.90;9.90;;;31.80;46.80;;;;;;4858740;29;20466;-72
2023/07/02 10:06:58;;;;;;;10.60;9.60;;;32.20;45.60;;;;;;4850660;29;21093;-72
2023/07/02 10:09:38;;;;;;;11.60;10.40;;;32.50;45.50;;;;;;4856538;29;20469;-72
2023/07/02 10:12:17;;;;;;;11.93;10.33;;;32.90;44.70;;;;;;4854789;29;20508;-72
2023/07/02 10:14:44;;;;;;;11.23;10.10;;;31.30;46.40;;;;;;4853204;29;20837;-72
2023/07/02 10:17:10;;;;;;;11.77;10.57;;;30.20;48.10;;;;;;4856629;29;20864;-72
2023/07/02 10:19:35;;;;;;;15.97;10.80;;;30.10;48.90;;;;;;4853967;29;20559;-72
2023/07/02 10:22:07;;;;;;;12.97;11.53;;;31.20;47.70;;;;;;4855454;29;21266;-72
2023/07/02 10:24:33;;;;;;;12.73;11.43;;;31.40;47.20;;;;;;4869096;29;20735;-71
2023/07/02 10:27:01;;;;;;;12.53;10.93;;;31.40;46.90;;;;;;4855917;29;20466;-72
2023/07/02 10:29:28;;;;;;;12.97;11.57;;;31.60;46.80;;;;;;4855432;29;20815;-72
2023/07/02 10:31:55;;;;;;;13.63;12.30;;;31.20;45.90;;;;;;4858790;29;20468;-72
2023/07/02 10:34:35;;;;;;;14.10;12.70;;;30.80;46.40;;;;;;4855915;29;20566;-72
2023/07/02 10:37:02;;;;;;;14.47;12.73;;;29.80;47.60;;;;;;4853779;29;20452;-72
2023/07/02 10:39:31;;;;;;;14.87;13.27;;;29.40;49.00;;;;;;4855850;29;20961;-72
2023/07/02 10:42:07;;;;;;;14.83;12.60;;;30.20;48.40;;;;;;4855954;29;20480;-72
2023/07/02 10:44:34;;;;;;;16.60;11.50;;;31.20;47.10;;;;;;4857277;29;20453;-72
2023/07/02 10:47:00;;;;;;;13.00;11.60;;;31.50;46.20;;;;;;4857493;29;20462;-72
2023/07/02 10:49:33;;;;;;;12.00;10.70;;;32.60;44.50;;;;;;4856753;29;20485;-72
2023/07/02 10:52:03;;;;;;;13.67;12.27;;;31.60;44.90;;;;;;4849906;29;20998;-72
2023/07/02 10:54:58;;;;;;;12.90;11.60;;;30.50;46.50;;;;;;4857408;29;20580;-72
2023/07/02 10:57:24;;;;;;;15.90;12.57;;;29.70;48.90;;;;;;4843897;29;20463;-71
2023/07/02 10:59:49;;;;;;;13.63;12.10;;;29.20;50.00;;;;;;4860032;29;20825;-72
2023/07/02 11:02:15;;;;;;;12.93;11.53;;;28.60;51.20;;;;;;4859205;29;20686;-72
2023/07/02 11:04:41;;;;;;;13.33;11.93;;;28.90;51.00;;;;;;4855799;29;20193;-72
2023/07/02 11:07:07;;;;;;;13.00;11.50;;;28.60;49.50;;;;;;4854416;29;20566;-72
2023/07/02 11:09:32;;;;;;;12.53;11.20;;;28.70;50.60;;;;;;4857626;29;20249;-71
2023/07/02 11:12:00;;;;;;;18.03;12.03;;;28.60;50.20;;;;;;4852187;29;20303;-71
2023/07/02 11:14:36;;;;;;;13.13;11.53;;;28.00;51.30;;;;;;4861085;29;20284;-73
2023/07/02 11:17:06;;;;;;;13.73;11.43;;;28.30;50.70;;;;;;4853660;29;21704;-71
2023/07/02 11:19:33;;;;;;;12.87;11.50;;;28.20;50.80;;;;;;4854929;29;20518;-72
2023/07/02 11:21:59;;;;;;;15.57;12.30;;;27.90;50.50;;;;;;4861311;29;20587;-71
2023/07/02 11:24:33;;;;;;;13.97;11.27;;;27.30;51.80;;;;;;4856841;29;20460;-72
2023/07/02 11:26:59;;;;;;;13.37;11.70;;;26.70;53.00;;;;;;4850780;29;20543;-72
2023/07/02 11:29:25;;;;;;;12.73;10.57;;;26.30;53.70;;;;;;4856343;29;20503;-72
2023/07/02 11:31:51;;;;;;;13.87;11.07;;;26.20;53.90;;;;;;4857690;29;20491;-72
2023/07/02 11:34:21;;;;;;;12.30;10.97;;;26.00;54.40;;;;;;4854009;29;20190;-72
2023/07/02 11:36:47;;;;;;;13.70;11.47;;;26.30;53.70;;;;;;4857057;29;20192;-72
2023/07/02 11:39:15;;;;;;;13.10;11.70;;;27.40;51.50;;;;;;4853320;29;20498;-72
2023/07/02 11:41:44;;;;;;;13.83;10.77;;;29.30;47.50;;;;;;4870523;29;20460;-73
2023/07/02 11:44:10;;;;;;;12.63;11.40;;;29.40;47.70;;;;;;4858556;29;20958;-72
2023/07/02 11:46:36;;;;;;;11.80;10.67;;;29.60;47.70;;;;;;4860841;29;20543;-72
2023/07/02 11:49:04;;;;;;;13.80;10.37;;;30.30;45.80;;;;;;4855371;29;20230;-72
2023/07/02 11:51:30;;;;;;;11.37;10.27;;;29.70;45.00;;;;;;4851579;29;20176;-72
2023/07/02 11:53:56;;;;;;;12.60;10.47;;;29.80;46.00;;;;;;4858008;29;20470;-71
2023/07/02 11:56:22;;;;;;;12.63;11.33;;;29.10;45.50;;;;;;4851539;29;20964;-72
2023/07/02 11:58:47;;;;;;;14.20;11.97;;;28.50;46.50;;;;;;4854915;29;20442;-72
2023/07/02 12:01:13;;;;;;;14.90;11.70;;;28.10;48.10;;;;;;4855377;29;20670;-71
2023/07/02 12:03:38;;;;;;;13.87;11.43;;;27.60;49.30;;;;;;4855968;29;20220;-71
2023/07/02 12:06:05;;;;;;;12.07;10.83;;;27.30;50.70;;;;;;4856385;29;20212;-71
2023/07/02 12:08:30;;;;;;;12.87;11.47;;;27.00;50.00;;;;;;4855957;29;20207;-71
2023/07/02 12:10:56;;;;;;;12.70;10.97;;;26.60;50.80;;;;;;4857441;29;20825;-71
2023/07/02 12:13:21;;;;;;;14.47;12.87;;;26.30;50.70;;;;;;4857024;29;20219;-72
2023/07/02 12:15:48;;;;;;;14.83;11.80;;;26.00;51.70;;;;;;4853060;29;20195;-72
2023/07/02 12:18:13;;;;;;;12.67;11.30;;;25.70;52.20;;;;;;4857284;29;20231;-72
2023/07/02 12:20:42;;;;;;;13.20;10.83;;;26.10;52.20;;;;;;4857543;29;20455;-72
2023/07/02 12:23:07;;;;;;;14.30;11.77;;;26.20;52.20;;;;;;4852993;29;20266;-73
2023/07/02 12:25:33;;;;;;;13.27;11.73;;;26.10;52.20;;;;;;4857654;29;20532;-73
2023/07/02 12:27:58;;;;;;;16.00;11.67;;;25.90;52.30;;;;;;4852771;29;20325;-73
2023/07/02 12:30:24;;;;;;;14.03;12.53;;;26.00;51.70;;;;;;4859282;29;20185;-73
2023/07/02 12:32:50;;;;;;;13.27;11.47;;;26.10;51.70;;;;;;4852216;29;20209;-73
2023/07/02 12:35:15;;;;;;;14.17;11.97;;;26.10;52.00;;;;;;4855293;29;20199;-73
2023/07/02 12:37:49;;;;;;;11.90;10.57;;;26.10;52.10;;;;;;4856418;29;20195;-73